Itajai, Brazil
Current Conditions -  °F | °C
As of 12:00 AM on Tuesday 21 Oct 2014 (Local Time) from SBNF Reporting Station
Overcast Overcast  
Wind Chill: 68°   Ceiling: 6000
Heat Index: 68°   Visibility: 6mi
Dew Point: 54°   Wind: 17mph
Humidity: 60%   Direction: 160°SSE
Pressure: 30.12"   Gusts: NA
Location:  26.9°S, 48.68°W
Report Text: SBNF 210200Z 16015KT 9999 FEW025 OVC060 20/12 Q1020
Loading
Personal Weather Stations






























Interactive Weather Map New forecast layout! Learn more

10-Day Weather Forecast

Advertisements
Track Severe Weather on mobile